Upstream stations:
Downstream station:
SHEF ID: BRIO2 Canadian River at Bridgeport, OK
STATION TYPE:
Regulating: Stage = 15.00, Flow = 8545
STAGE RIV-FLOW
ft cfs
Ccp-Rev Ccp-Rev
(US/Central)
05/16 00:00 9.75 98
05/16 01:00 12.57 2146
05/16 02:00 12.55 2117
05/16 03:00 12.54 2103
05/16 04:00 12.53 2089
05/16 05:00 12.52 2074
05/16 06:00 12.67 2295
05/16 07:00 13.15 3111
05/16 08:00 13.13 3073
05/16 09:00 13.00 2838
05/16 10:00 12.95 2750
05/16 11:00 12.93 2716
05/16 12:00 12.90 2665
05/16 13:00 12.87 2615
05/16 14:00 12.83 2548
05/16 15:00 12.82 2532
05/16 16:00 12.80 2500
05/16 17:00 12.81 2516
05/16 18:00 12.81 2516
05/16 19:00 12.77 2451
05/16 20:00 12.67 2295
05/16 21:00 12.64 2250
05/16 22:00 9.70 85
05/16 23:00 ---- ----